sensor_id;sensor_type;location;lat;lon;timestamp;temperature;humidity
15815;DHT22;8008;50.024;8.172;2023-12-29T04:02:18;8.80;99.90
15815;DHT22;8008;50.024;8.172;2023-12-29T04:04:46;8.90;99.90
15815;DHT22;8008;50.024;8.172;2023-12-29T04:07:15;8.80;99.90
15815;DHT22;8008;50.024;8.172;2023-12-29T04:09:43;8.80;99.90
15815;DHT22;8008;50.024;8.172;2023-12-29T04:12:10;8.80;99.90
15815;DHT22;8008;50.024;8.172;2023-12-29T04:14:38;8.80;99.90
15815;DHT22;8008;50.024;8.172;2023-12-29T04:17:06;8.80;99.90
15815;DHT22;8008;50.024;8.172;2023-12-29T04:19:42;8.80;99.90
15815;DHT22;8008;50.024;8.172;2023-12-29T04:22:10;8.80;99.90
15815;DHT22;8008;50.024;8.172;2023-12-29T04:24:38;8.80;99.90
15815;DHT22;8008;50.024;8.172;2023-12-29T04:27:06;8.80;99.90
15815;DHT22;8008;50.024;8.172;2023-12-29T04:29:34;8.80;99.90
15815;DHT22;8008;50.024;8.172;2023-12-29T04:32:02;8.90;99.90
15815;DHT22;8008;50.024;8.172;2023-12-29T04:34:30;8.80;99.90
15815;DHT22;8008;50.024;8.172;2023-12-29T04:36:59;8.80;99.90
15815;DHT22;8008;50.024;8.172;2023-12-29T04:39:27;8.80;99.90
15815;DHT22;8008;50.024;8.172;2023-12-29T04:41:56;8.80;99.90
15815;DHT22;8008;50.024;8.172;2023-12-29T04:44:23;8.80;99.90
15815;DHT22;8008;50.024;8.172;2023-12-29T04:46:52;8.80;99.90
15815;DHT22;8008;50.024;8.172;2023-12-29T04:49:20;8.80;99.90
15815;DHT22;8008;50.024;8.172;2023-12-29T04:51:48;8.80;99.90
15815;DHT22;8008;50.024;8.172;2023-12-29T04:54:17;8.90;99.90
15815;DHT22;8008;50.024;8.172;2023-12-29T04:56:45;8.90;99.90
15815;DHT22;8008;50.024;8.172;2023-12-29T04:59:13;8.90;99.90
15815;DHT22;8008;50.024;8.172;2023-12-29T05:01:41;8.90;99.90
15815;DHT22;8008;50.024;8.172;2023-12-29T05:04:09;8.90;99.90
15815;DHT22;8008;50.024;8.172;2023-12-29T05:06:37;8.90;99.90
15815;DHT22;8008;50.024;8.172;2023-12-29T05:09:05;8.90;99.90
15815;DHT22;8008;50.024;8.172;2023-12-29T05:11:34;8.90;99.90
15815;DHT22;8008;50.024;8.172;2023-12-29T05:14:02;8.90;99.90
15815;DHT22;8008;50.024;8.172;2023-12-29T05:16:30;8.90;99.90
15815;DHT22;8008;50.024;8.172;2023-12-29T05:18:58;9.00;99.90
15815;DHT22;8008;50.024;8.172;2023-12-29T05:21:26;9.00;99.90
15815;DHT22;8008;50.024;8.172;2023-12-29T05:23:54;8.90;99.90
15815;DHT22;8008;50.024;8.172;2023-12-29T05:26:22;8.90;99.90
15815;DHT22;8008;50.024;8.172;2023-12-29T05:28:51;8.90;99.90
15815;DHT22;8008;50.024;8.172;2023-12-29T05:31:19;8.90;99.90
15815;DHT22;8008;50.024;8.172;2023-12-29T05:33:47;8.90;99.90
15815;DHT22;8008;50.024;8.172;2023-12-29T05:36:15;8.90;99.90
15815;DHT22;8008;50.024;8.172;2023-12-29T05:38:45;8.90;99.90
15815;DHT22;8008;50.024;8.172;2023-12-29T05:41:14;9.00;99.90
15815;DHT22;8008;50.024;8.172;2023-12-29T05:43:42;9.00;99.90
15815;DHT22;8008;50.024;8.172;2023-12-29T05:46:12;9.00;99.90
15815;DHT22;8008;50.024;8.172;2023-12-29T05:48:40;9.10;99.90
15815;DHT22;8008;50.024;8.172;2023-12-29T05:51:08;9.10;99.90
15815;DHT22;8008;50.024;8.172;2023-12-29T05:53:36;9.10;99.90
15815;DHT22;8008;50.024;8.172;2023-12-29T05:56:05;9.20;99.90
15815;DHT22;8008;50.024;8.172;2023-12-29T05:58:33;9.30;99.90
15815;DHT22;8008;50.024;8.172;2023-12-29T06:01:01;9.30;99.90
15815;DHT22;8008;50.024;8.172;2023-12-29T06:03:31;9.30;99.90
15815;DHT22;8008;50.024;8.172;2023-12-29T06:05:59;9.30;99.90
15815;DHT22;8008;50.024;8.172;2023-12-29T06:08:27;9.30;99.90
15815;DHT22;8008;50.024;8.172;2023-12-29T06:10:54;9.40;99.90
15815;DHT22;8008;50.024;8.172;2023-12-29T06:13:22;9.40;99.90
15815;DHT22;8008;50.024;8.172;2023-12-29T06:15:50;9.30;99.90
15815;DHT22;8008;50.024;8.172;2023-12-29T06:18:18;9.40;99.90
15815;DHT22;8008;50.024;8.172;2023-12-29T06:20:48;9.50;99.90
15815;DHT22;8008;50.024;8.172;2023-12-29T06:23:16;9.50;99.90
15815;DHT22;8008;50.024;8.172;2023-12-29T06:25:44;9.60;99.90
15815;DHT22;8008;50.024;8.172;2023-12-29T06:28:12;9.60;99.90
15815;DHT22;8008;50.024;8.172;2023-12-29T06:30:40;9.60;99.90
15815;DHT22;8008;50.024;8.172;2023-12-29T06:33:09;9.60;99.90
15815;DHT22;8008;50.024;8.172;2023-12-29T06:35:37;9.60;99.90
15815;DHT22;8008;50.024;8.172;2023-12-29T06:38:07;9.70;99.90
15815;DHT22;8008;50.024;8.172;2023-12-29T06:40:34;9.70;99.90
15815;DHT22;8008;50.024;8.172;2023-12-29T06:43:03;9.70;99.90
15815;DHT22;8008;50.024;8.172;2023-12-29T06:45:31;9.70;99.90
15815;DHT22;8008;50.024;8.172;2023-12-29T06:47:59;9.80;99.90
15815;DHT22;8008;50.024;8.172;2023-12-29T06:50:27;9.80;99.90
15815;DHT22;8008;50.024;8.172;2023-12-29T06:52:55;9.80;99.90
15815;DHT22;8008;50.024;8.172;2023-12-29T06:55:25;9.80;99.90
15815;DHT22;8008;50.024;8.172;2023-12-29T06:57:53;9.80;99.90
15815;DHT22;8008;50.024;8.172;2023-12-29T07:00:21;9.80;99.90
15815;DHT22;8008;50.024;8.172;2023-12-29T07:02:49;9.90;99.90
15815;DHT22;8008;50.024;8.172;2023-12-29T07:05:17;9.90;99.90
15815;DHT22;8008;50.024;8.172;2023-12-29T07:07:45;9.90;99.90
15815;DHT22;8008;50.024;8.172;2023-12-29T07:10:13;9.90;99.90
15815;DHT22;8008;50.024;8.172;2023-12-29T07:12:43;10.00;99.90
15815;DHT22;8008;50.024;8.172;2023-12-29T07:15:11;10.00;99.90
15815;DHT22;8008;50.024;8.172;2023-12-29T07:17:40;10.00;99.90
15815;DHT22;8008;50.024;8.172;2023-12-29T07:20:09;10.00;99.90
15815;DHT22;8008;50.024;8.172;2023-12-29T07:22:37;10.00;99.90
15815;DHT22;8008;50.024;8.172;2023-12-29T07:25:05;10.00;99.90
15815;DHT22;8008;50.024;8.172;2023-12-29T07:27:33;10.00;99.90
15815;DHT22;8008;50.024;8.172;2023-12-29T07:30:03;9.90;99.90
15815;DHT22;8008;50.024;8.172;2023-12-29T07:32:31;10.00;99.90
15815;DHT22;8008;50.024;8.172;2023-12-29T07:34:59;10.00;99.90
15815;DHT22;8008;50.024;8.172;2023-12-29T07:37:27;10.00;99.90
15815;DHT22;8008;50.024;8.172;2023-12-29T07:39:55;10.00;99.90
15815;DHT22;8008;50.024;8.172;2023-12-29T07:42:23;10.00;99.90
15815;DHT22;8008;50.024;8.172;2023-12-29T07:44:51;10.10;99.90
15815;DHT22;8008;50.024;8.172;2023-12-29T07:47:20;10.10;99.90
15815;DHT22;8008;50.024;8.172;2023-12-29T07:49:48;10.10;99.90
15815;DHT22;8008;50.024;8.172;2023-12-29T07:52:16;10.00;99.90
15815;DHT22;8008;50.024;8.172;2023-12-29T07:54:44;10.10;99.90
15815;DHT22;8008;50.024;8.172;2023-12-29T07:57:12;10.10;99.90
15815;DHT22;8008;50.024;8.172;2023-12-29T07:59:40;10.10;99.90
15815;DHT22;8008;50.024;8.172;2023-12-29T08:02:08;10.10;99.90
15815;DHT22;8008;50.024;8.172;2023-12-29T08:04:37;10.10;99.90
15815;DHT22;8008;50.024;8.172;2023-12-29T08:07:05;10.10;99.90
15815;DHT22;8008;50.024;8.172;2023-12-29T08:09:33;10.20;99.90
15815;DHT22;8008;50.024;8.172;2023-12-29T08:12:01;10.20;99.90
15815;DHT22;8008;50.024;8.172;2023-12-29T08:14:29;10.20;99.90
15815;DHT22;8008;50.024;8.172;2023-12-29T08:16:57;10.20;99.90
15815;DHT22;8008;50.024;8.172;2023-12-29T08:19:25;10.20;99.90
15815;DHT22;8008;50.024;8.172;2023-12-29T08:21:55;10.20;99.90
15815;DHT22;8008;50.024;8.172;2023-12-29T08:24:25;10.20;99.90
15815;DHT22;8008;50.024;8.172;2023-12-29T08:26:53;10.20;99.90
15815;DHT22;8008;50.024;8.172;2023-12-29T08:29:21;10.20;99.90
15815;DHT22;8008;50.024;8.172;2023-12-29T08:31:52;10.20;99.90
15815;DHT22;8008;50.024;8.172;2023-12-29T08:34:20;10.20;99.90
15815;DHT22;8008;50.024;8.172;2023-12-29T08:36:50;10.30;99.90
15815;DHT22;8008;50.024;8.172;2023-12-29T08:39:20;10.30;99.90
15815;DHT22;8008;50.024;8.172;2023-12-29T08:41:47;10.30;99.90
15815;DHT22;8008;50.024;8.172;2023-12-29T08:44:16;10.30;99.90
15815;DHT22;8008;50.024;8.172;2023-12-29T08:46:44;10.30;99.90
15815;DHT22;8008;50.024;8.172;2023-12-29T08:49:12;10.30;99.90
15815;DHT22;8008;50.024;8.172;2023-12-29T08:51:40;10.40;99.90
15815;DHT22;8008;50.024;8.172;2023-12-29T08:54:08;10.30;99.90
15815;DHT22;8008;50.024;8.172;2023-12-29T08:56:37;10.30;99.90
15815;DHT22;8008;50.024;8.172;2023-12-29T08:59:05;10.40;99.90
15815;DHT22;8008;50.024;8.172;2023-12-29T09:01:33;10.40;99.90
15815;DHT22;8008;50.024;8.172;2023-12-29T09:04:01;10.40;99.90
15815;DHT22;8008;50.024;8.172;2023-12-29T09:06:29;10.40;99.90
15815;DHT22;8008;50.024;8.172;2023-12-29T09:08:58;10.40;99.90
15815;DHT22;8008;50.024;8.172;2023-12-29T09:11:26;10.50;99.90
15815;DHT22;8008;50.024;8.172;2023-12-29T09:13:55;10.50;99.90
15815;DHT22;8008;50.024;8.172;2023-12-29T09:16:23;10.50;99.90
15815;DHT22;8008;50.024;8.172;2023-12-29T09:18:51;10.50;99.90
15815;DHT22;8008;50.024;8.172;2023-12-29T09:21:19;10.50;99.90
15815;DHT22;8008;50.024;8.172;2023-12-29T09:23:47;10.50;99.90
15815;DHT22;8008;50.024;8.172;2023-12-29T09:26:15;10.50;99.90
15815;DHT22;8008;50.024;8.172;2023-12-29T09:28:43;10.50;99.90
15815;DHT22;8008;50.024;8.172;2023-12-29T09:31:13;10.50;99.90
15815;DHT22;8008;50.024;8.172;2023-12-29T09:33:41;10.50;99.90
15815;DHT22;8008;50.024;8.172;2023-12-29T09:36:09;10.50;99.90
15815;DHT22;8008;50.024;8.172;2023-12-29T09:38:37;10.50;99.90
15815;DHT22;8008;50.024;8.172;2023-12-29T09:41:10;10.50;99.90
15815;DHT22;8008;50.024;8.172;2023-12-29T09:43:40;10.50;99.90
15815;DHT22;8008;50.024;8.172;2023-12-29T09:46:10;10.50;99.90
15815;DHT22;8008;50.024;8.172;2023-12-29T09:48:42;10.50;99.90
15815;DHT22;8008;50.024;8.172;2023-12-29T09:51:12;10.50;99.90
15815;DHT22;8008;50.024;8.172;2023-12-29T09:53:40;10.50;99.90
15815;DHT22;8008;50.024;8.172;2023-12-29T09:56:09;10.50;99.90
15815;DHT22;8008;50.024;8.172;2023-12-29T09:58:37;10.50;99.90
15815;DHT22;8008;50.024;8.172;2023-12-29T10:01:06;10.50;99.90
15815;DHT22;8008;50.024;8.172;2023-12-29T10:03:34;10.50;99.90
15815;DHT22;8008;50.024;8.172;2023-12-29T10:06:06;10.50;99.90
15815;DHT22;8008;50.024;8.172;2023-12-29T10:08:37;10.50;99.90
15815;DHT22;8008;50.024;8.172;2023-12-29T10:11:07;10.60;99.90
15815;DHT22;8008;50.024;8.172;2023-12-29T10:13:36;10.60;99.90
15815;DHT22;8008;50.024;8.172;2023-12-29T10:16:11;10.60;99.90
15815;DHT22;8008;50.024;8.172;2023-12-29T10:18:45;10.60;99.90
15815;DHT22;8008;50.024;8.172;2023-12-29T10:21:23;10.60;99.90
15815;DHT22;8008;50.024;8.172;2023-12-29T10:23:58;10.60;99.90
15815;DHT22;8008;50.024;8.172;2023-12-29T10:26:33;10.60;99.90
15815;DHT22;8008;50.024;8.172;2023-12-29T10:29:01;10.70;99.90
15815;DHT22;8008;50.024;8.172;2023-12-29T10:31:29;10.60;99.90
15815;DHT22;8008;50.024;8.172;2023-12-29T10:34:19;10.70;99.90
15815;DHT22;8008;50.024;8.172;2023-12-29T10:36:49;10.70;99.90
15815;DHT22;8008;50.024;8.172;2023-12-29T10:39:17;10.70;99.90
15815;DHT22;8008;50.024;8.172;2023-12-29T10:41:45;10.70;99.90
15815;DHT22;8008;50.024;8.172;2023-12-29T10:44:13;10.70;99.90
15815;DHT22;8008;50.024;8.172;2023-12-29T10:46:41;10.70;99.90
15815;DHT22;8008;50.024;8.172;2023-12-29T10:49:10;10.70;99.90
15815;DHT22;8008;50.024;8.172;2023-12-29T10:51:39;10.70;99.90
15815;DHT22;8008;50.024;8.172;2023-12-29T10:54:19;10.80;99.90
15815;DHT22;8008;50.024;8.172;2023-12-29T10:57:00;10.70;99.90
15815;DHT22;8008;50.024;8.172;2023-12-29T10:59:29;10.70;99.90
15815;DHT22;8008;50.024;8.172;2023-12-29T11:01:57;10.80;99.90
15815;DHT22;8008;50.024;8.172;2023-12-29T11:04:32;10.80;99.90
15815;DHT22;8008;50.024;8.172;2023-12-29T11:07:01;10.80;99.90
15815;DHT22;8008;50.024;8.172;2023-12-29T11:09:33;10.80;99.90
15815;DHT22;8008;50.024;8.172;2023-12-29T11:12:02;10.80;99.90
15815;DHT22;8008;50.024;8.172;2023-12-29T11:14:31;10.80;99.90
15815;DHT22;8008;50.024;8.172;2023-12-29T11:17:00;10.80;99.90
15815;DHT22;8008;50.024;8.172;2023-12-29T11:19:28;10.80;99.90
15815;DHT22;8008;50.024;8.172;2023-12-29T11:21:56;10.80;99.90
15815;DHT22;8008;50.024;8.172;2023-12-29T11:24:24;10.80;99.90
15815;DHT22;8008;50.024;8.172;2023-12-29T11:27:06;10.80;99.90
15815;DHT22;8008;50.024;8.172;2023-12-29T11:29:35;10.80;99.90
15815;DHT22;8008;50.024;8.172;2023-12-29T11:32:05;10.80;99.90
15815;DHT22;8008;50.024;8.172;2023-12-29T11:34:37;10.80;99.90
15815;DHT22;8008;50.024;8.172;2023-12-29T11:37:15;10.90;99.90
15815;DHT22;8008;50.024;8.172;2023-12-29T11:39:52;10.80;99.90
15815;DHT22;8008;50.024;8.172;2023-12-29T11:42:28;10.80;99.90
15815;DHT22;8008;50.024;8.172;2023-12-29T11:45:25;10.80;99.90
15815;DHT22;8008;50.024;8.172;2023-12-29T11:47:53;10.90;99.90
15815;DHT22;8008;50.024;8.172;2023-12-29T11:50:31;10.90;99.90
15815;DHT22;8008;50.024;8.172;2023-12-29T11:52:59;10.90;99.90
15815;DHT22;8008;50.024;8.172;2023-12-29T11:55:29;10.90;99.90
15815;DHT22;8008;50.024;8.172;2023-12-29T11:57:59;11.00;99.90
15815;DHT22;8008;50.024;8.172;2023-12-29T12:00:44;11.00;99.90
15815;DHT22;8008;50.024;8.172;2023-12-29T12:03:18;11.00;99.90
15815;DHT22;8008;50.024;8.172;2023-12-29T12:05:48;11.00;99.90
15815;DHT22;8008;50.024;8.172;2023-12-29T12:08:27;11.00;99.90
15815;DHT22;8008;50.024;8.172;2023-12-29T12:10:56;11.00;99.90
15815;DHT22;8008;50.024;8.172;2023-12-29T12:13:45;11.10;99.90
15815;DHT22;8008;50.024;8.172;2023-12-29T12:16:51;11.10;99.90
15815;DHT22;8008;50.024;8.172;2023-12-29T12:19:21;11.10;99.90
15815;DHT22;8008;50.024;8.172;2023-12-29T12:21:53;11.10;99.90
15815;DHT22;8008;50.024;8.172;2023-12-29T12:24:21;11.20;99.90
15815;DHT22;8008;50.024;8.172;2023-12-29T12:26:49;11.20;99.90
15815;DHT22;8008;50.024;8.172;2023-12-29T12:29:19;11.30;99.90
15815;DHT22;8008;50.024;8.172;2023-12-29T12:31:54;11.30;99.90
15815;DHT22;8008;50.024;8.172;2023-12-29T12:34:23;11.30;99.90
15815;DHT22;8008;50.024;8.172;2023-12-29T12:36:52;11.20;99.90
15815;DHT22;8008;50.024;8.172;2023-12-29T12:39:23;11.20;99.90
15815;DHT22;8008;50.024;8.172;2023-12-29T12:41:51;11.30;99.90
15815;DHT22;8008;50.024;8.172;2023-12-29T12:44:20;11.30;99.90
15815;DHT22;8008;50.024;8.172;2023-12-29T12:46:57;11.20;99.90
15815;DHT22;8008;50.024;8.172;2023-12-29T12:49:26;11.30;99.90
15815;DHT22;8008;50.024;8.172;2023-12-29T12:51:54;11.20;99.90
15815;DHT22;8008;50.024;8.172;2023-12-29T12:54:22;11.20;99.90
15815;DHT22;8008;50.024;8.172;2023-12-29T12:56:50;11.30;99.90
15815;DHT22;8008;50.024;8.172;2023-12-29T12:59:21;11.30;99.90
15815;DHT22;8008;50.024;8.172;2023-12-29T13:01:49;11.20;99.90
15815;DHT22;8008;50.024;8.172;2023-12-29T13:04:17;11.20;99.90
15815;DHT22;8008;50.024;8.172;2023-12-29T13:06:45;11.20;99.90
15815;DHT22;8008;50.024;8.172;2023-12-29T13:09:18;11.20;99.90
15815;DHT22;8008;50.024;8.172;2023-12-29T13:11:47;11.30;99.90
15815;DHT22;8008;50.024;8.172;2023-12-29T13:14:22;11.30;99.90
15815;DHT22;8008;50.024;8.172;2023-12-29T13:16:52;11.40;99.90
15815;DHT22;8008;50.024;8.172;2023-12-29T13:19:21;11.40;99.90
15815;DHT22;8008;50.024;8.172;2023-12-29T13:21:52;11.40;99.90
15815;DHT22;8008;50.024;8.172;2023-12-29T13:24:23;11.40;99.90
15815;DHT22;8008;50.024;8.172;2023-12-29T13:26:54;11.40;99.90
15815;DHT22;8008;50.024;8.172;2023-12-29T13:29:25;11.40;99.90
15815;DHT22;8008;50.024;8.172;2023-12-29T13:31:59;11.50;99.90
15815;DHT22;8008;50.024;8.172;2023-12-29T13:34:33;11.50;99.90
15815;DHT22;8008;50.024;8.172;2023-12-29T13:37:10;11.50;99.90
15815;DHT22;8008;50.024;8.172;2023-12-29T13:39:51;11.40;99.90
15815;DHT22;8008;50.024;8.172;2023-12-29T13:42:21;11.40;99.90
15815;DHT22;8008;50.024;8.172;2023-12-29T13:44:52;11.40;99.90
15815;DHT22;8008;50.024;8.172;2023-12-29T13:47:20;11.40;99.90
15815;DHT22;8008;50.024;8.172;2023-12-29T13:49:50;11.40;99.90
15815;DHT22;8008;50.024;8.172;2023-12-29T13:52:18;11.30;99.90
15815;DHT22;8008;50.024;8.172;2023-12-29T13:54:48;11.30;99.90
15815;DHT22;8008;50.024;8.172;2023-12-29T13:57:16;11.30;99.90
15815;DHT22;8008;50.024;8.172;2023-12-29T13:59:46;11.30;99.90
15815;DHT22;8008;50.024;8.172;2023-12-29T14:02:23;11.30;99.90
15815;DHT22;8008;50.024;8.172;2023-12-29T14:05:11;11.30;99.90
15815;DHT22;8008;50.024;8.172;2023-12-29T14:07:44;11.30;99.90
15815;DHT22;8008;50.024;8.172;2023-12-29T14:10:13;11.30;99.90
15815;DHT22;8008;50.024;8.172;2023-12-29T14:12:41;11.30;99.90
15815;DHT22;8008;50.024;8.172;2023-12-29T14:15:10;11.20;99.90
15815;DHT22;8008;50.024;8.172;2023-12-29T14:17:39;11.30;99.90
15815;DHT22;8008;50.024;8.172;2023-12-29T14:20:08;11.30;99.90
15815;DHT22;8008;50.024;8.172;2023-12-29T14:22:37;11.20;99.90
15815;DHT22;8008;50.024;8.172;2023-12-29T14:25:06;11.20;99.90
15815;DHT22;8008;50.024;8.172;2023-12-29T14:27:35;11.20;99.90
15815;DHT22;8008;50.024;8.172;2023-12-29T14:30:17;11.10;99.90
15815;DHT22;8008;50.024;8.172;2023-12-29T14:32:46;11.10;99.90
15815;DHT22;8008;50.024;8.172;2023-12-29T14:35:15;11.10;99.90
15815;DHT22;8008;50.024;8.172;2023-12-29T14:37:43;11.00;99.90
15815;DHT22;8008;50.024;8.172;2023-12-29T14:40:11;11.00;99.90
15815;DHT22;8008;50.024;8.172;2023-12-29T14:42:39;11.00;99.90
15815;DHT22;8008;50.024;8.172;2023-12-29T14:45:09;10.90;99.90
15815;DHT22;8008;50.024;8.172;2023-12-29T14:47:37;11.00;99.90
15815;DHT22;8008;50.024;8.172;2023-12-29T14:50:08;10.90;99.90
15815;DHT22;8008;50.024;8.172;2023-12-29T14:52:36;10.90;99.90
15815;DHT22;8008;50.024;8.172;2023-12-29T14:55:05;10.90;99.90
15815;DHT22;8008;50.024;8.172;2023-12-29T14:57:33;10.90;99.90
15815;DHT22;8008;50.024;8.172;2023-12-29T15:00:01;10.90;99.90
15815;DHT22;8008;50.024;8.172;2023-12-29T15:02:31;10.90;99.90
15815;DHT22;8008;50.024;8.172;2023-12-29T15:04:59;10.90;99.90
15815;DHT22;8008;50.024;8.172;2023-12-29T15:07:28;10.90;99.90
15815;DHT22;8008;50.024;8.172;2023-12-29T15:09:57;10.80;99.90
15815;DHT22;8008;50.024;8.172;2023-12-29T15:12:25;10.90;99.90
15815;DHT22;8008;50.024;8.172;2023-12-29T15:14:53;10.90;99.90
15815;DHT22;8008;50.024;8.172;2023-12-29T15:17:21;10.80;99.90
15815;DHT22;8008;50.024;8.172;2023-12-29T15:19:49;10.80;99.90
15815;DHT22;8008;50.024;8.172;2023-12-29T15:22:17;10.80;99.90
15815;DHT22;8008;50.024;8.172;2023-12-29T15:24:47;10.80;99.90
15815;DHT22;8008;50.024;8.172;2023-12-29T15:27:15;10.80;99.90
15815;DHT22;8008;50.024;8.172;2023-12-29T15:29:43;10.80;99.90
15815;DHT22;8008;50.024;8.172;2023-12-29T15:32:11;10.80;99.90
15815;DHT22;8008;50.024;8.172;2023-12-29T15:34:39;10.80;99.90
15815;DHT22;8008;50.024;8.172;2023-12-29T15:37:07;10.80;99.90
15815;DHT22;8008;50.024;8.172;2023-12-29T15:39:35;10.80;99.90
15815;DHT22;8008;50.024;8.172;2023-12-29T15:42:06;10.70;99.90
15815;DHT22;8008;50.024;8.172;2023-12-29T15:44:34;10.70;99.90
15815;DHT22;8008;50.024;8.172;2023-12-29T15:47:02;10.70;99.90
15815;DHT22;8008;50.024;8.172;2023-12-29T15:49:30;10.60;99.90
15815;DHT22;8008;50.024;8.172;2023-12-29T15:51:58;10.60;99.90
15815;DHT22;8008;50.024;8.172;2023-12-29T15:54:26;10.60;99.90
15815;DHT22;8008;50.024;8.172;2023-12-29T15:56:55;10.50;99.90
15815;DHT22;8008;50.024;8.172;2023-12-29T15:59:24;10.50;99.90
15815;DHT22;8008;50.024;8.172;2023-12-29T16:01:52;10.30;99.90
15815;DHT22;8008;50.024;8.172;2023-12-29T16:04:20;10.30;99.90
15815;DHT22;8008;50.024;8.172;2023-12-29T16:06:48;10.30;99.90
15815;DHT22;8008;50.024;8.172;2023-12-29T16:09:16;10.30;99.90
15815;DHT22;8008;50.024;8.172;2023-12-29T16:11:44;10.30;99.90
15815;DHT22;8008;50.024;8.172;2023-12-29T16:14:12;10.30;99.90
15815;DHT22;8008;50.024;8.172;2023-12-29T16:16:41;10.30;99.90
15815;DHT22;8008;50.024;8.172;2023-12-29T16:19:09;10.30;99.90
15815;DHT22;8008;50.024;8.172;2023-12-29T16:21:38;10.30;99.90
15815;DHT22;8008;50.024;8.172;2023-12-29T16:24:07;10.30;99.90
15815;DHT22;8008;50.024;8.172;2023-12-29T16:26:36;10.30;99.90
15815;DHT22;8008;50.024;8.172;2023-12-29T16:29:13;10.20;99.90
15815;DHT22;8008;50.024;8.172;2023-12-29T16:31:43;10.20;99.90
15815;DHT22;8008;50.024;8.172;2023-12-29T16:34:11;10.20;99.90
15815;DHT22;8008;50.024;8.172;2023-12-29T16:36:39;10.20;99.90
15815;DHT22;8008;50.024;8.172;2023-12-29T16:39:07;10.20;99.90
15815;DHT22;8008;50.024;8.172;2023-12-29T16:41:36;10.20;99.90
15815;DHT22;8008;50.024;8.172;2023-12-29T16:44:04;10.20;99.90
15815;DHT22;8008;50.024;8.172;2023-12-29T16:46:33;10.20;99.90
15815;DHT22;8008;50.024;8.172;2023-12-29T16:49:03;10.20;99.90
15815;DHT22;8008;50.024;8.172;2023-12-29T16:51:31;10.20;99.90
15815;DHT22;8008;50.024;8.172;2023-12-29T16:53:59;10.30;99.90
15815;DHT22;8008;50.024;8.172;2023-12-29T16:56:28;10.30;99.90
15815;DHT22;8008;50.024;8.172;2023-12-29T16:58:57;10.30;99.90
15815;DHT22;8008;50.024;8.172;2023-12-29T17:01:27;10.30;99.90
15815;DHT22;8008;50.024;8.172;2023-12-29T17:03:55;10.30;99.90
15815;DHT22;8008;50.024;8.172;2023-12-29T17:06:25;10.40;99.90
15815;DHT22;8008;50.024;8.172;2023-12-29T17:08:53;10.40;99.90
15815;DHT22;8008;50.024;8.172;2023-12-29T17:11:20;10.40;99.90
15815;DHT22;8008;50.024;8.172;2023-12-29T17:13:48;10.40;99.90
15815;DHT22;8008;50.024;8.172;2023-12-29T17:16:16;10.50;99.90
15815;DHT22;8008;50.024;8.172;2023-12-29T17:18:44;10.50;99.90
15815;DHT22;8008;50.024;8.172;2023-12-29T17:21:13;10.60;99.90
15815;DHT22;8008;50.024;8.172;2023-12-29T17:23:42;10.60;99.90
15815;DHT22;8008;50.024;8.172;2023-12-29T17:26:11;10.60;99.90
15815;DHT22;8008;50.024;8.172;2023-12-29T17:28:41;10.60;99.90
15815;DHT22;8008;50.024;8.172;2023-12-29T17:31:09;10.60;99.90
15815;DHT22;8008;50.024;8.172;2023-12-29T17:33:37;10.60;99.90
15815;DHT22;8008;50.024;8.172;2023-12-29T17:36:07;10.60;99.90
15815;DHT22;8008;50.024;8.172;2023-12-29T17:38:36;10.60;99.90
15815;DHT22;8008;50.024;8.172;2023-12-29T17:41:05;10.60;99.90
15815;DHT22;8008;50.024;8.172;2023-12-29T17:43:34;10.60;99.90
15815;DHT22;8008;50.024;8.172;2023-12-29T17:46:03;10.60;99.90
15815;DHT22;8008;50.024;8.172;2023-12-29T17:48:32;10.60;99.90
15815;DHT22;8008;50.024;8.172;2023-12-29T17:51:00;10.60;99.90
15815;DHT22;8008;50.024;8.172;2023-12-29T17:53:28;10.60;99.90
15815;DHT22;8008;50.024;8.172;2023-12-29T17:55:56;10.60;99.90
15815;DHT22;8008;50.024;8.172;2023-12-29T17:58:25;10.70;99.90
15815;DHT22;8008;50.024;8.172;2023-12-29T18:00:53;10.60;99.90
15815;DHT22;8008;50.024;8.172;2023-12-29T18:03:21;10.60;99.90
15815;DHT22;8008;50.024;8.172;2023-12-29T18:05:49;10.70;99.90
15815;DHT22;8008;50.024;8.172;2023-12-29T18:08:20;10.70;99.90
15815;DHT22;8008;50.024;8.172;2023-12-29T18:10:48;10.70;99.90
15815;DHT22;8008;50.024;8.172;2023-12-29T18:13:16;10.70;99.90
15815;DHT22;8008;50.024;8.172;2023-12-29T18:15:47;10.60;99.90
15815;DHT22;8008;50.024;8.172;2023-12-29T18:18:16;10.70;99.90
15815;DHT22;8008;50.024;8.172;2023-12-29T18:20:45;10.70;99.90
15815;DHT22;8008;50.024;8.172;2023-12-29T18:23:16;10.70;99.90
15815;DHT22;8008;50.024;8.172;2023-12-29T18:25:44;10.60;99.90
15815;DHT22;8008;50.024;8.172;2023-12-29T18:28:12;10.60;99.90
15815;DHT22;8008;50.024;8.172;2023-12-29T18:30:40;10.60;99.90
15815;DHT22;8008;50.024;8.172;2023-12-29T18:33:09;10.60;99.90
15815;DHT22;8008;50.024;8.172;2023-12-29T18:35:37;10.60;99.90
15815;DHT22;8008;50.024;8.172;2023-12-29T18:38:06;10.60;99.90
15815;DHT22;8008;50.024;8.172;2023-12-29T18:40:34;10.70;99.90
15815;DHT22;8008;50.024;8.172;2023-12-29T18:43:02;10.60;99.90
15815;DHT22;8008;50.024;8.172;2023-12-29T18:45:30;10.60;99.90
15815;DHT22;8008;50.024;8.172;2023-12-29T18:47:58;10.70;99.90
15815;DHT22;8008;50.024;8.172;2023-12-29T18:50:28;10.70;99.90
15815;DHT22;8008;50.024;8.172;2023-12-29T18:52:56;10.60;99.90
15815;DHT22;8008;50.024;8.172;2023-12-29T18:55:25;10.60;99.90
15815;DHT22;8008;50.024;8.172;2023-12-29T18:57:53;10.60;99.90
15815;DHT22;8008;50.024;8.172;2023-12-29T19:00:21;10.50;99.90
15815;DHT22;8008;50.024;8.172;2023-12-29T19:02:49;10.50;99.90
15815;DHT22;8008;50.024;8.172;2023-12-29T19:05:17;10.50;99.90
15815;DHT22;8008;50.024;8.172;2023-12-29T19:07:47;10.40;99.90
15815;DHT22;8008;50.024;8.172;2023-12-29T19:10:15;10.40;99.90
15815;DHT22;8008;50.024;8.172;2023-12-29T19:12:43;10.30;99.90
15815;DHT22;8008;50.024;8.172;2023-12-29T19:15:14;10.20;99.90
15815;DHT22;8008;50.024;8.172;2023-12-29T19:17:42;10.20;99.90
15815;DHT22;8008;50.024;8.172;2023-12-29T19:20:11;10.20;99.90
15815;DHT22;8008;50.024;8.172;2023-12-29T19:22:40;10.20;99.90
15815;DHT22;8008;50.024;8.172;2023-12-29T19:25:11;10.20;99.90
15815;DHT22;8008;50.024;8.172;2023-12-29T19:27:40;10.20;99.90
15815;DHT22;8008;50.024;8.172;2023-12-29T19:30:11;10.20;99.90
15815;DHT22;8008;50.024;8.172;2023-12-29T19:32:39;10.10;99.90
15815;DHT22;8008;50.024;8.172;2023-12-29T19:35:09;10.10;99.90
15815;DHT22;8008;50.024;8.172;2023-12-29T19:37:37;10.00;99.90
15815;DHT22;8008;50.024;8.172;2023-12-29T19:40:06;10.10;99.90
15815;DHT22;8008;50.024;8.172;2023-12-29T19:42:37;10.10;99.90
15815;DHT22;8008;50.024;8.172;2023-12-29T19:45:06;10.00;99.90
15815;DHT22;8008;50.024;8.172;2023-12-29T19:47:40;10.00;99.90
15815;DHT22;8008;50.024;8.172;2023-12-29T19:50:09;9.90;99.90
15815;DHT22;8008;50.024;8.172;2023-12-29T19:52:37;9.90;99.90
15815;DHT22;8008;50.024;8.172;2023-12-29T19:55:06;9.90;99.90
15815;DHT22;8008;50.024;8.172;2023-12-29T19:57:34;9.90;99.90
15815;DHT22;8008;50.024;8.172;2023-12-29T20:00:05;9.90;99.90
15815;DHT22;8008;50.024;8.172;2023-12-29T20:02:35;9.80;99.90
15815;DHT22;8008;50.024;8.172;2023-12-29T20:05:04;9.80;99.90